sensor_id;sensor_type;location;lat;lon;timestamp;P1;durP1;ratioP1;P2;durP2;ratioP2
59788;SDS011;47353;51.614;5.530;2023-02-12T00:02:16;29.48;;;19.13;;
59788;SDS011;47353;51.614;5.530;2023-02-12T00:04:42;28.08;;;18.70;;
59788;SDS011;47353;51.614;5.530;2023-02-12T00:07:08;28.30;;;17.40;;
59788;SDS011;47353;51.614;5.530;2023-02-12T00:09:33;27.20;;;18.27;;
59788;SDS011;47353;51.614;5.530;2023-02-12T00:12:00;26.50;;;17.27;;
59788;SDS011;47353;51.614;5.530;2023-02-12T00:14:26;27.20;;;17.55;;
59788;SDS011;47353;51.614;5.530;2023-02-12T00:16:51;22.23;;;14.88;;
59788;SDS011;47353;51.614;5.530;2023-02-12T00:19:17;26.25;;;15.52;;
59788;SDS011;47353;51.614;5.530;2023-02-12T00:21:42;27.55;;;15.70;;
59788;SDS011;47353;51.614;5.530;2023-02-12T00:24:07;28.45;;;16.67;;
59788;SDS011;47353;51.614;5.530;2023-02-12T00:26:34;22.98;;;15.85;;
59788;SDS011;47353;51.614;5.530;2023-02-12T00:29:00;28.00;;;16.98;;
59788;SDS011;47353;51.614;5.530;2023-02-12T00:31:27;24.63;;;16.38;;
59788;SDS011;47353;51.614;5.530;2023-02-12T00:33:53;30.00;;;17.20;;
59788;SDS011;47353;51.614;5.530;2023-02-12T00:36:20;28.27;;;17.42;;
59788;SDS011;47353;51.614;5.530;2023-02-12T00:38:49;33.47;;;20.13;;
59788;SDS011;47353;51.614;5.530;2023-02-12T00:41:16;34.08;;;20.33;;
59788;SDS011;47353;51.614;5.530;2023-02-12T00:43:42;29.90;;;18.40;;
59788;SDS011;47353;51.614;5.530;2023-02-12T00:46:07;32.33;;;17.92;;
59788;SDS011;47353;51.614;5.530;2023-02-12T00:48:33;23.67;;;15.50;;
59788;SDS011;47353;51.614;5.530;2023-02-12T00:51:00;24.35;;;16.20;;
59788;SDS011;47353;51.614;5.530;2023-02-12T00:53:25;25.80;;;16.10;;
59788;SDS011;47353;51.614;5.530;2023-02-12T00:55:51;28.15;;;16.85;;
59788;SDS011;47353;51.614;5.530;2023-02-12T00:58:16;26.45;;;16.42;;
59788;SDS011;47353;51.614;5.530;2023-02-12T01:00:42;23.35;;;15.15;;
59788;SDS011;47353;51.614;5.530;2023-02-12T01:03:07;21.65;;;15.25;;
59788;SDS011;47353;51.614;5.530;2023-02-12T01:05:33;23.25;;;15.63;;
59788;SDS011;47353;51.614;5.530;2023-02-12T01:07:58;22.73;;;15.77;;
59788;SDS011;47353;51.614;5.530;2023-02-12T01:10:24;25.45;;;16.80;;
59788;SDS011;47353;51.614;5.530;2023-02-12T01:12:50;23.98;;;15.38;;
59788;SDS011;47353;51.614;5.530;2023-02-12T01:15:16;24.27;;;16.10;;
59788;SDS011;47353;51.614;5.530;2023-02-12T01:17:41;20.98;;;14.15;;
59788;SDS011;47353;51.614;5.530;2023-02-12T01:20:09;20.23;;;14.52;;
59788;SDS011;47353;51.614;5.530;2023-02-12T01:22:37;23.17;;;15.35;;
59788;SDS011;47353;51.614;5.530;2023-02-12T01:25:05;22.80;;;15.00;;
59788;SDS011;47353;51.614;5.530;2023-02-12T01:27:31;21.88;;;15.40;;
59788;SDS011;47353;51.614;5.530;2023-02-12T01:29:57;22.95;;;15.55;;
59788;SDS011;47353;51.614;5.530;2023-02-12T01:32:23;22.45;;;15.45;;
59788;SDS011;47353;51.614;5.530;2023-02-12T01:34:48;23.75;;;15.38;;
59788;SDS011;47353;51.614;5.530;2023-02-12T01:37:14;23.17;;;15.10;;
59788;SDS011;47353;51.614;5.530;2023-02-12T01:39:39;22.02;;;14.95;;
59788;SDS011;47353;51.614;5.530;2023-02-12T01:42:05;23.13;;;15.15;;
59788;SDS011;47353;51.614;5.530;2023-02-12T01:44:31;21.60;;;14.80;;
59788;SDS011;47353;51.614;5.530;2023-02-12T01:47:00;20.48;;;14.63;;
59788;SDS011;47353;51.614;5.530;2023-02-12T01:49:34;22.13;;;14.35;;
59788;SDS011;47353;51.614;5.530;2023-02-12T01:54:38;19.90;;;13.10;;
59788;SDS011;47353;51.614;5.530;2023-02-12T01:57:06;19.60;;;13.45;;
59788;SDS011;47353;51.614;5.530;2023-02-12T01:59:33;18.20;;;13.15;;
59788;SDS011;47353;51.614;5.530;2023-02-12T02:02:01;21.00;;;14.25;;
59788;SDS011;47353;51.614;5.530;2023-02-12T02:04:29;19.33;;;13.48;;
59788;SDS011;47353;51.614;5.530;2023-02-12T02:07:01;19.98;;;13.00;;
59788;SDS011;47353;51.614;5.530;2023-02-12T02:09:29;21.63;;;13.48;;
59788;SDS011;47353;51.614;5.530;2023-02-12T02:11:57;18.80;;;13.10;;
59788;SDS011;47353;51.614;5.530;2023-02-12T02:14:41;19.80;;;13.35;;
59788;SDS011;47353;51.614;5.530;2023-02-12T02:44:33;19.58;;;13.40;;
59788;SDS011;47353;51.614;5.530;2023-02-12T02:47:03;17.95;;;12.85;;
59788;SDS011;47353;51.614;5.530;2023-02-12T02:49:36;20.23;;;12.77;;
59788;SDS011;47353;51.614;5.530;2023-02-12T02:52:11;19.17;;;12.95;;
59788;SDS011;47353;51.614;5.530;2023-02-12T02:54:43;19.98;;;13.05;;
59788;SDS011;47353;51.614;5.530;2023-02-12T02:57:17;20.35;;;12.77;;
59788;SDS011;47353;51.614;5.530;2023-02-12T02:59:51;20.35;;;12.90;;
59788;SDS011;47353;51.614;5.530;2023-02-12T03:02:24;19.13;;;13.18;;
59788;SDS011;47353;51.614;5.530;2023-02-12T03:04:54;18.60;;;12.85;;
59788;SDS011;47353;51.614;5.530;2023-02-12T03:07:25;20.88;;;12.95;;
59788;SDS011;47353;51.614;5.530;2023-02-12T03:09:58;19.50;;;13.65;;
59788;SDS011;47353;51.614;5.530;2023-02-12T03:12:31;18.15;;;13.35;;
59788;SDS011;47353;51.614;5.530;2023-02-12T03:15:06;21.33;;;13.85;;
59788;SDS011;47353;51.614;5.530;2023-02-12T03:17:38;19.23;;;13.35;;
59788;SDS011;47353;51.614;5.530;2023-02-12T03:20:28;19.98;;;14.10;;
59788;SDS011;47353;51.614;5.530;2023-02-12T03:23:00;23.77;;;13.88;;
59788;SDS011;47353;51.614;5.530;2023-02-12T03:25:41;21.48;;;13.57;;
59788;SDS011;47353;51.614;5.530;2023-02-12T03:28:19;20.52;;;12.82;;
59788;SDS011;47353;51.614;5.530;2023-02-12T03:30:54;21.60;;;12.95;;
59788;SDS011;47353;51.614;5.530;2023-02-12T03:36:18;19.65;;;12.55;;
59788;SDS011;47353;51.614;5.530;2023-02-12T03:38:53;19.45;;;12.80;;
59788;SDS011;47353;51.614;5.530;2023-02-12T03:41:33;24.65;;;13.88;;
59788;SDS011;47353;51.614;5.530;2023-02-12T03:49:30;21.05;;;12.93;;
59788;SDS011;47353;51.614;5.530;2023-02-12T03:52:02;18.50;;;13.13;;
59788;SDS011;47353;51.614;5.530;2023-02-12T03:54:28;19.30;;;13.10;;
59788;SDS011;47353;51.614;5.530;2023-02-12T03:56:55;21.05;;;13.73;;
59788;SDS011;47353;51.614;5.530;2023-02-12T03:59:25;19.38;;;13.38;;
59788;SDS011;47353;51.614;5.530;2023-02-12T04:01:52;22.70;;;13.98;;
59788;SDS011;47353;51.614;5.530;2023-02-12T04:04:19;19.83;;;14.35;;
59788;SDS011;47353;51.614;5.530;2023-02-12T04:06:47;20.52;;;13.75;;
59788;SDS011;47353;51.614;5.530;2023-02-12T04:09:14;19.15;;;13.48;;
59788;SDS011;47353;51.614;5.530;2023-02-12T04:17:02;19.92;;;14.27;;
59788;SDS011;47353;51.614;5.530;2023-02-12T04:19:32;21.48;;;14.20;;
59788;SDS011;47353;51.614;5.530;2023-02-12T04:27:31;21.15;;;14.15;;
59788;SDS011;47353;51.614;5.530;2023-02-12T04:30:19;22.75;;;15.05;;
59788;SDS011;47353;51.614;5.530;2023-02-12T04:32:54;22.25;;;14.57;;
59788;SDS011;47353;51.614;5.530;2023-02-12T04:35:35;22.90;;;14.73;;
59788;SDS011;47353;51.614;5.530;2023-02-12T04:38:19;22.92;;;14.55;;
59788;SDS011;47353;51.614;5.530;2023-02-12T04:40:48;24.20;;;14.80;;
59788;SDS011;47353;51.614;5.530;2023-02-12T04:43:24;23.25;;;15.18;;
59788;SDS011;47353;51.614;5.530;2023-02-12T04:45:51;22.73;;;15.10;;
59788;SDS011;47353;51.614;5.530;2023-02-12T04:48:16;23.33;;;15.55;;
59788;SDS011;47353;51.614;5.530;2023-02-12T04:50:42;22.45;;;14.88;;
59788;SDS011;47353;51.614;5.530;2023-02-12T04:53:09;21.40;;;15.30;;
59788;SDS011;47353;51.614;5.530;2023-02-12T04:55:35;25.00;;;17.27;;
59788;SDS011;47353;51.614;5.530;2023-02-12T04:58:00;25.42;;;16.10;;
59788;SDS011;47353;51.614;5.530;2023-02-12T05:00:26;22.75;;;16.02;;
59788;SDS011;47353;51.614;5.530;2023-02-12T05:02:51;25.13;;;16.38;;
59788;SDS011;47353;51.614;5.530;2023-02-12T05:05:17;25.27;;;16.15;;
59788;SDS011;47353;51.614;5.530;2023-02-12T05:07:42;25.40;;;15.95;;
59788;SDS011;47353;51.614;5.530;2023-02-12T05:10:08;24.33;;;15.85;;
59788;SDS011;47353;51.614;5.530;2023-02-12T05:12:33;25.10;;;17.38;;
59788;SDS011;47353;51.614;5.530;2023-02-12T05:14:59;24.42;;;17.00;;
59788;SDS011;47353;51.614;5.530;2023-02-12T05:17:24;26.48;;;16.88;;
59788;SDS011;47353;51.614;5.530;2023-02-12T05:19:50;27.50;;;16.73;;
59788;SDS011;47353;51.614;5.530;2023-02-12T05:22:15;26.50;;;16.83;;
59788;SDS011;47353;51.614;5.530;2023-02-12T05:24:41;28.15;;;17.35;;
59788;SDS011;47353;51.614;5.530;2023-02-12T05:27:07;28.60;;;16.73;;
59788;SDS011;47353;51.614;5.530;2023-02-12T05:29:33;27.67;;;17.67;;
59788;SDS011;47353;51.614;5.530;2023-02-12T05:32:00;27.15;;;16.92;;
59788;SDS011;47353;51.614;5.530;2023-02-12T05:34:25;28.08;;;16.88;;
59788;SDS011;47353;51.614;5.530;2023-02-12T05:36:51;27.25;;;17.15;;
59788;SDS011;47353;51.614;5.530;2023-02-12T05:39:16;26.83;;;16.83;;
59788;SDS011;47353;51.614;5.530;2023-02-12T05:41:42;25.55;;;17.45;;
59788;SDS011;47353;51.614;5.530;2023-02-12T05:44:07;26.73;;;17.27;;
59788;SDS011;47353;51.614;5.530;2023-02-12T05:46:35;28.42;;;16.92;;
59788;SDS011;47353;51.614;5.530;2023-02-12T05:49:00;28.92;;;15.95;;
59788;SDS011;47353;51.614;5.530;2023-02-12T05:51:26;24.98;;;16.20;;
59788;SDS011;47353;51.614;5.530;2023-02-12T05:53:55;25.88;;;16.98;;
59788;SDS011;47353;51.614;5.530;2023-02-12T05:56:26;26.33;;;16.23;;
59788;SDS011;47353;51.614;5.530;2023-02-12T05:58:57;26.42;;;16.42;;
59788;SDS011;47353;51.614;5.530;2023-02-12T06:01:36;25.98;;;16.70;;
59788;SDS011;47353;51.614;5.530;2023-02-12T06:04:04;26.88;;;16.70;;
59788;SDS011;47353;51.614;5.530;2023-02-12T06:06:31;25.10;;;15.93;;
59788;SDS011;47353;51.614;5.530;2023-02-12T06:08:57;27.45;;;16.50;;
59788;SDS011;47353;51.614;5.530;2023-02-12T06:11:23;23.73;;;15.60;;
59788;SDS011;47353;51.614;5.530;2023-02-12T06:13:49;24.15;;;15.38;;
59788;SDS011;47353;51.614;5.530;2023-02-12T06:16:16;24.65;;;15.70;;
59788;SDS011;47353;51.614;5.530;2023-02-12T06:18:42;25.05;;;16.13;;
59788;SDS011;47353;51.614;5.530;2023-02-12T06:21:07;23.45;;;15.57;;
59788;SDS011;47353;51.614;5.530;2023-02-12T06:23:33;25.35;;;16.58;;
59788;SDS011;47353;51.614;5.530;2023-02-12T06:25:58;24.27;;;16.20;;
59788;SDS011;47353;51.614;5.530;2023-02-12T06:28:24;28.02;;;16.05;;
59788;SDS011;47353;51.614;5.530;2023-02-12T06:30:49;25.35;;;16.48;;
59788;SDS011;47353;51.614;5.530;2023-02-12T06:33:15;23.52;;;15.40;;
59788;SDS011;47353;51.614;5.530;2023-02-12T06:35:40;25.52;;;16.67;;
59788;SDS011;47353;51.614;5.530;2023-02-12T06:38:05;25.45;;;16.08;;
59788;SDS011;47353;51.614;5.530;2023-02-12T06:40:31;28.52;;;17.30;;
59788;SDS011;47353;51.614;5.530;2023-02-12T06:42:57;27.13;;;18.25;;
59788;SDS011;47353;51.614;5.530;2023-02-12T06:45:22;24.95;;;16.40;;
59788;SDS011;47353;51.614;5.530;2023-02-12T06:47:48;27.35;;;18.17;;
59788;SDS011;47353;51.614;5.530;2023-02-12T06:50:13;29.70;;;18.38;;
59788;SDS011;47353;51.614;5.530;2023-02-12T06:52:38;29.80;;;18.10;;
59788;SDS011;47353;51.614;5.530;2023-02-12T06:55:04;24.60;;;16.13;;
59788;SDS011;47353;51.614;5.530;2023-02-12T06:57:29;20.38;;;12.50;;
59788;SDS011;47353;51.614;5.530;2023-02-12T06:59:55;24.90;;;14.38;;
59788;SDS011;47353;51.614;5.530;2023-02-12T07:02:20;23.42;;;15.20;;
59788;SDS011;47353;51.614;5.530;2023-02-12T07:04:46;25.00;;;14.50;;
59788;SDS011;47353;51.614;5.530;2023-02-12T07:07:11;23.95;;;15.43;;
59788;SDS011;47353;51.614;5.530;2023-02-12T07:09:37;24.00;;;15.60;;
59788;SDS011;47353;51.614;5.530;2023-02-12T07:12:02;27.88;;;15.35;;
59788;SDS011;47353;51.614;5.530;2023-02-12T07:14:28;26.27;;;15.45;;
59788;SDS011;47353;51.614;5.530;2023-02-12T07:16:53;23.70;;;15.38;;
59788;SDS011;47353;51.614;5.530;2023-02-12T07:19:19;26.13;;;15.27;;
59788;SDS011;47353;51.614;5.530;2023-02-12T07:21:45;24.55;;;13.52;;
59788;SDS011;47353;51.614;5.530;2023-02-12T07:24:11;21.65;;;13.48;;
59788;SDS011;47353;51.614;5.530;2023-02-12T07:26:38;24.98;;;14.60;;
59788;SDS011;47353;51.614;5.530;2023-02-12T07:29:04;24.40;;;15.30;;
59788;SDS011;47353;51.614;5.530;2023-02-12T07:31:29;23.92;;;15.30;;
59788;SDS011;47353;51.614;5.530;2023-02-12T07:33:56;20.67;;;13.45;;
59788;SDS011;47353;51.614;5.530;2023-02-12T07:36:23;23.83;;;12.65;;
59788;SDS011;47353;51.614;5.530;2023-02-12T07:38:49;22.58;;;14.40;;
59788;SDS011;47353;51.614;5.530;2023-02-12T07:41:17;26.35;;;15.32;;
59788;SDS011;47353;51.614;5.530;2023-02-12T07:43:46;21.15;;;13.88;;
59788;SDS011;47353;51.614;5.530;2023-02-12T07:46:17;22.73;;;14.13;;
59788;SDS011;47353;51.614;5.530;2023-02-12T07:48:44;25.77;;;15.52;;
59788;SDS011;47353;51.614;5.530;2023-02-12T07:51:13;27.05;;;16.83;;
59788;SDS011;47353;51.614;5.530;2023-02-12T07:53:40;24.48;;;15.63;;
59788;SDS011;47353;51.614;5.530;2023-02-12T07:56:10;23.88;;;14.00;;
59788;SDS011;47353;51.614;5.530;2023-02-12T07:58:37;20.85;;;12.93;;
59788;SDS011;47353;51.614;5.530;2023-02-12T08:01:11;24.65;;;14.50;;
59788;SDS011;47353;51.614;5.530;2023-02-12T08:03:36;20.35;;;12.70;;
59788;SDS011;47353;51.614;5.530;2023-02-12T08:06:05;21.48;;;13.23;;
59788;SDS011;47353;51.614;5.530;2023-02-12T08:08:34;22.48;;;13.45;;
59788;SDS011;47353;51.614;5.530;2023-02-12T08:11:02;21.98;;;13.00;;
59788;SDS011;47353;51.614;5.530;2023-02-12T08:13:29;22.25;;;12.88;;
59788;SDS011;47353;51.614;5.530;2023-02-12T08:16:07;22.00;;;14.00;;
59788;SDS011;47353;51.614;5.530;2023-02-12T08:18:34;26.42;;;14.40;;
59788;SDS011;47353;51.614;5.530;2023-02-12T08:21:00;25.95;;;15.02;;
59788;SDS011;47353;51.614;5.530;2023-02-12T08:23:36;24.60;;;14.57;;
59788;SDS011;47353;51.614;5.530;2023-02-12T08:26:12;23.45;;;14.57;;
59788;SDS011;47353;51.614;5.530;2023-02-12T08:28:46;25.10;;;14.88;;
59788;SDS011;47353;51.614;5.530;2023-02-12T08:31:14;25.63;;;15.50;;
59788;SDS011;47353;51.614;5.530;2023-02-12T08:33:45;24.55;;;14.43;;
59788;SDS011;47353;51.614;5.530;2023-02-12T08:36:13;24.10;;;14.50;;
59788;SDS011;47353;51.614;5.530;2023-02-12T08:38:41;24.92;;;14.63;;
59788;SDS011;47353;51.614;5.530;2023-02-12T08:41:29;23.17;;;14.32;;
59788;SDS011;47353;51.614;5.530;2023-02-12T08:43:55;22.38;;;14.13;;
59788;SDS011;47353;51.614;5.530;2023-02-12T08:46:23;23.23;;;14.15;;
59788;SDS011;47353;51.614;5.530;2023-02-12T08:48:51;24.27;;;14.10;;
59788;SDS011;47353;51.614;5.530;2023-02-12T08:51:19;25.63;;;15.35;;
59788;SDS011;47353;51.614;5.530;2023-02-12T08:53:47;28.13;;;15.57;;
59788;SDS011;47353;51.614;5.530;2023-02-12T08:56:16;26.58;;;15.65;;
59788;SDS011;47353;51.614;5.530;2023-02-12T08:58:42;28.95;;;16.60;;
59788;SDS011;47353;51.614;5.530;2023-02-12T09:01:08;26.92;;;16.20;;
59788;SDS011;47353;51.614;5.530;2023-02-12T09:03:36;27.52;;;16.52;;
59788;SDS011;47353;51.614;5.530;2023-02-12T09:06:02;25.95;;;15.77;;
59788;SDS011;47353;51.614;5.530;2023-02-12T09:08:28;28.30;;;16.80;;
59788;SDS011;47353;51.614;5.530;2023-02-12T09:10:54;28.17;;;15.95;;
59788;SDS011;47353;51.614;5.530;2023-02-12T09:13:20;28.08;;;16.23;;
59788;SDS011;47353;51.614;5.530;2023-02-12T09:15:45;27.90;;;16.10;;
59788;SDS011;47353;51.614;5.530;2023-02-12T09:18:11;27.08;;;16.17;;
59788;SDS011;47353;51.614;5.530;2023-02-12T09:20:39;27.98;;;16.70;;
59788;SDS011;47353;51.614;5.530;2023-02-12T09:23:07;28.75;;;16.98;;
59788;SDS011;47353;51.614;5.530;2023-02-12T09:25:34;29.38;;;16.35;;
59788;SDS011;47353;51.614;5.530;2023-02-12T09:28:00;28.02;;;16.38;;
59788;SDS011;47353;51.614;5.530;2023-02-12T09:30:26;28.17;;;16.27;;
59788;SDS011;47353;51.614;5.530;2023-02-12T09:32:51;28.60;;;17.25;;
59788;SDS011;47353;51.614;5.530;2023-02-12T09:35:17;28.50;;;17.95;;
59788;SDS011;47353;51.614;5.530;2023-02-12T09:37:43;30.02;;;17.13;;
59788;SDS011;47353;51.614;5.530;2023-02-12T09:40:10;29.98;;;18.00;;
59788;SDS011;47353;51.614;5.530;2023-02-12T09:45:31;27.52;;;17.42;;
59788;SDS011;47353;51.614;5.530;2023-02-12T09:51:20;35.08;;;19.92;;
59788;SDS011;47353;51.614;5.530;2023-02-12T09:53:47;29.42;;;18.33;;
59788;SDS011;47353;51.614;5.530;2023-02-12T09:56:15;30.08;;;18.23;;
59788;SDS011;47353;51.614;5.530;2023-02-12T10:01:22;33.17;;;18.27;;
59788;SDS011;47353;51.614;5.530;2023-02-12T10:03:49;28.35;;;16.83;;
59788;SDS011;47353;51.614;5.530;2023-02-12T10:06:18;28.17;;;17.95;;
59788;SDS011;47353;51.614;5.530;2023-02-12T10:12:08;28.83;;;18.13;;
59788;SDS011;47353;51.614;5.530;2023-02-12T10:14:35;28.95;;;16.17;;
59788;SDS011;47353;51.614;5.530;2023-02-12T10:17:50;26.05;;;16.98;;
59788;SDS011;47353;51.614;5.530;2023-02-12T10:28:19;28.75;;;17.02;;
59788;SDS011;47353;51.614;5.530;2023-02-12T10:30:53;31.42;;;17.73;;
59788;SDS011;47353;51.614;5.530;2023-02-12T10:33:44;31.20;;;16.90;;
59788;SDS011;47353;51.614;5.530;2023-02-12T10:39:12;31.00;;;16.85;;
59788;SDS011;47353;51.614;5.530;2023-02-12T10:42:07;28.05;;;16.88;;
59788;SDS011;47353;51.614;5.530;2023-02-12T10:44:38;27.90;;;16.58;;
59788;SDS011;47353;51.614;5.530;2023-02-12T10:47:04;27.48;;;16.25;;
59788;SDS011;47353;51.614;5.530;2023-02-12T10:49:30;28.52;;;17.00;;
59788;SDS011;47353;51.614;5.530;2023-02-12T10:54:35;26.80;;;16.02;;
59788;SDS011;47353;51.614;5.530;2023-02-12T10:57:09;28.20;;;15.80;;
59788;SDS011;47353;51.614;5.530;2023-02-12T10:59:42;26.25;;;16.58;;
59788;SDS011;47353;51.614;5.530;2023-02-12T11:02:29;25.90;;;15.27;;
59788;SDS011;47353;51.614;5.530;2023-02-12T11:04:56;29.65;;;15.60;;
59788;SDS011;47353;51.614;5.530;2023-02-12T11:07:23;27.52;;;15.10;;
59788;SDS011;47353;51.614;5.530;2023-02-12T11:09:51;27.70;;;16.85;;
59788;SDS011;47353;51.614;5.530;2023-02-12T11:12:32;27.67;;;16.45;;
59788;SDS011;47353;51.614;5.530;2023-02-12T11:15:11;27.85;;;17.17;;
59788;SDS011;47353;51.614;5.530;2023-02-12T11:17:41;32.47;;;20.23;;
59788;SDS011;47353;51.614;5.530;2023-02-12T11:25:20;26.60;;;17.00;;
59788;SDS011;47353;51.614;5.530;2023-02-12T11:28:19;28.05;;;16.60;;
59788;SDS011;47353;51.614;5.530;2023-02-12T11:30:49;27.27;;;16.42;;
59788;SDS011;47353;51.614;5.530;2023-02-12T11:33:25;28.38;;;17.90;;
59788;SDS011;47353;51.614;5.530;2023-02-12T11:35:53;27.67;;;16.52;;
59788;SDS011;47353;51.614;5.530;2023-02-12T11:38:22;27.40;;;16.50;;
59788;SDS011;47353;51.614;5.530;2023-02-12T11:40:52;26.48;;;16.42;;
59788;SDS011;47353;51.614;5.530;2023-02-12T11:43:20;23.95;;;15.80;;
59788;SDS011;47353;51.614;5.530;2023-02-12T11:45:49;26.65;;;16.88;;
59788;SDS011;47353;51.614;5.530;2023-02-12T11:48:18;28.77;;;17.67;;
59788;SDS011;47353;51.614;5.530;2023-02-12T11:50:47;26.75;;;17.50;;
59788;SDS011;47353;51.614;5.530;2023-02-12T11:53:31;28.73;;;18.50;;
59788;SDS011;47353;51.614;5.530;2023-02-12T11:56:09;29.38;;;19.05;;
59788;SDS011;47353;51.614;5.530;2023-02-12T11:58:36;29.90;;;18.83;;
59788;SDS011;47353;51.614;5.530;2023-02-12T12:01:19;31.85;;;20.08;;
59788;SDS011;47353;51.614;5.530;2023-02-12T12:04:10;29.50;;;18.30;;
59788;SDS011;47353;51.614;5.530;2023-02-12T12:06:39;29.58;;;18.38;;
59788;SDS011;47353;51.614;5.530;2023-02-12T12:09:16;30.42;;;18.45;;
59788;SDS011;47353;51.614;5.530;2023-02-12T12:17:46;27.40;;;17.08;;
59788;SDS011;47353;51.614;5.530;2023-02-12T12:20:38;29.40;;;17.60;;
59788;SDS011;47353;51.614;5.530;2023-02-12T12:23:19;29.52;;;17.92;;
59788;SDS011;47353;51.614;5.530;2023-02-12T12:25:56;26.92;;;16.98;;
59788;SDS011;47353;51.614;5.530;2023-02-12T12:31:03;32.17;;;18.73;;
59788;SDS011;47353;51.614;5.530;2023-02-12T12:41:21;32.05;;;18.65;;
59788;SDS011;47353;51.614;5.530;2023-02-12T12:44:14;31.15;;;18.10;;
59788;SDS011;47353;51.614;5.530;2023-02-12T12:46:54;27.77;;;17.55;;
59788;SDS011;47353;51.614;5.530;2023-02-12T12:55:04;27.15;;;16.90;;
59788;SDS011;47353;51.614;5.530;2023-02-12T12:58:12;27.52;;;17.40;;
59788;SDS011;47353;51.614;5.530;2023-02-12T13:01:23;28.27;;;17.17;;
59788;SDS011;47353;51.614;5.530;2023-02-12T13:09:16;29.77;;;18.58;;
59788;SDS011;47353;51.614;5.530;2023-02-12T13:14:58;26.98;;;17.67;;
59788;SDS011;47353;51.614;5.530;2023-02-12T13:17:42;29.73;;;18.13;;
59788;SDS011;47353;51.614;5.530;2023-02-12T13:20:20;27.63;;;17.67;;
59788;SDS011;47353;51.614;5.530;2023-02-12T13:27:55;30.98;;;21.75;;
59788;SDS011;47353;51.614;5.530;2023-02-12T13:30:24;32.17;;;19.38;;
59788;SDS011;47353;51.614;5.530;2023-02-12T13:33:15;29.73;;;18.00;;
59788;SDS011;47353;51.614;5.530;2023-02-12T13:35:44;29.55;;;18.13;;
59788;SDS011;47353;51.614;5.530;2023-02-12T13:38:23;29.92;;;18.23;;
59788;SDS011;47353;51.614;5.530;2023-02-12T13:40:53;29.27;;;18.48;;
59788;SDS011;47353;51.614;5.530;2023-02-12T13:56:59;31.60;;;18.40;;
59788;SDS011;47353;51.614;5.530;2023-02-12T14:01:56;29.65;;;18.70;;
59788;SDS011;47353;51.614;5.530;2023-02-12T14:04:30;29.08;;;18.63;;
59788;SDS011;47353;51.614;5.530;2023-02-12T14:07:01;29.85;;;18.30;;
59788;SDS011;47353;51.614;5.530;2023-02-12T14:14:48;28.70;;;17.70;;
59788;SDS011;47353;51.614;5.530;2023-02-12T14:38:02;28.45;;;17.95;;
59788;SDS011;47353;51.614;5.530;2023-02-12T14:40:48;29.08;;;17.75;;
59788;SDS011;47353;51.614;5.530;2023-02-12T14:43:31;27.83;;;18.25;;
59788;SDS011;47353;51.614;5.530;2023-02-12T14:48:53;30.00;;;18.13;;
59788;SDS011;47353;51.614;5.530;2023-02-12T14:51:30;37.70;;;23.92;;
59788;SDS011;47353;51.614;5.530;2023-02-12T14:54:02;29.70;;;19.20;;
59788;SDS011;47353;51.614;5.530;2023-02-12T14:56:38;32.65;;;20.20;;
59788;SDS011;47353;51.614;5.530;2023-02-12T14:59:10;33.85;;;20.58;;
59788;SDS011;47353;51.614;5.530;2023-02-12T15:01:41;32.30;;;20.60;;
59788;SDS011;47353;51.614;5.530;2023-02-12T15:04:11;31.50;;;19.58;;
59788;SDS011;47353;51.614;5.530;2023-02-12T15:06:50;32.55;;;19.38;;
59788;SDS011;47353;51.614;5.530;2023-02-12T15:09:21;31.42;;;19.40;;
59788;SDS011;47353;51.614;5.530;2023-02-12T15:12:18;31.50;;;19.95;;
59788;SDS011;47353;51.614;5.530;2023-02-12T15:14:52;32.22;;;19.70;;
59788;SDS011;47353;51.614;5.530;2023-02-12T15:17:28;31.17;;;19.73;;
59788;SDS011;47353;51.614;5.530;2023-02-12T15:22:56;33.85;;;20.15;;
59788;SDS011;47353;51.614;5.530;2023-02-12T15:25:23;32.38;;;19.73;;
59788;SDS011;47353;51.614;5.530;2023-02-12T15:30:28;35.95;;;19.40;;
59788;SDS011;47353;51.614;5.530;2023-02-12T15:32:57;33.05;;;18.85;;
59788;SDS011;47353;51.614;5.530;2023-02-12T15:37:52;33.28;;;19.90;;
59788;SDS011;47353;51.614;5.530;2023-02-12T15:40:18;30.60;;;18.63;;
59788;SDS011;47353;51.614;5.530;2023-02-12T15:42:54;30.77;;;19.15;;
59788;SDS011;47353;51.614;5.530;2023-02-12T15:45:24;32.10;;;19.10;;
59788;SDS011;47353;51.614;5.530;2023-02-12T15:47:59;32.72;;;18.75;;
59788;SDS011;47353;51.614;5.530;2023-02-12T15:50:44;30.95;;;18.80;;
59788;SDS011;47353;51.614;5.530;2023-02-12T15:53:17;34.17;;;20.30;;
59788;SDS011;47353;51.614;5.530;2023-02-12T15:55:44;32.45;;;19.10;;
59788;SDS011;47353;51.614;5.530;2023-02-12T16:01:06;34.55;;;20.65;;
59788;SDS011;47353;51.614;5.530;2023-02-12T16:03:33;31.13;;;18.65;;
59788;SDS011;47353;51.614;5.530;2023-02-12T16:06:02;31.90;;;18.48;;
59788;SDS011;47353;51.614;5.530;2023-02-12T16:08:30;32.42;;;19.08;;
59788;SDS011;47353;51.614;5.530;2023-02-12T16:10:58;31.25;;;17.98;;
59788;SDS011;47353;51.614;5.530;2023-02-12T16:13:29;35.38;;;18.42;;
59788;SDS011;47353;51.614;5.530;2023-02-12T16:16:12;30.77;;;18.42;;
59788;SDS011;47353;51.614;5.530;2023-02-12T16:18:44;32.00;;;18.65;;
59788;SDS011;47353;51.614;5.530;2023-02-12T16:21:18;32.63;;;19.38;;
59788;SDS011;47353;51.614;5.530;2023-02-12T16:23:47;33.88;;;20.23;;
59788;SDS011;47353;51.614;5.530;2023-02-12T16:26:15;34.90;;;20.30;;
59788;SDS011;47353;51.614;5.530;2023-02-12T16:28:44;33.30;;;19.67;;
59788;SDS011;47353;51.614;5.530;2023-02-12T16:31:12;31.65;;;19.95;;
59788;SDS011;47353;51.614;5.530;2023-02-12T16:36:14;34.13;;;20.23;;
59788;SDS011;47353;51.614;5.530;2023-02-12T16:38:49;34.55;;;20.23;;
59788;SDS011;47353;51.614;5.530;2023-02-12T16:46:47;32.65;;;19.95;;
59788;SDS011;47353;51.614;5.530;2023-02-12T16:49:16;38.17;;;19.55;;
59788;SDS011;47353;51.614;5.530;2023-02-12T16:51:44;32.40;;;19.08;;
59788;SDS011;47353;51.614;5.530;2023-02-12T16:54:24;37.28;;;20.83;;
59788;SDS011;47353;51.614;5.530;2023-02-12T16:56:52;35.10;;;20.23;;
59788;SDS011;47353;51.614;5.530;2023-02-12T16:59:17;32.10;;;19.95;;
59788;SDS011;47353;51.614;5.530;2023-02-12T17:01:43;37.65;;;20.63;;
59788;SDS011;47353;51.614;5.530;2023-02-12T17:04:21;33.80;;;19.80;;
59788;SDS011;47353;51.614;5.530;2023-02-12T17:06:46;36.45;;;20.70;;
59788;SDS011;47353;51.614;5.530;2023-02-12T17:09:11;36.65;;;21.58;;
59788;SDS011;47353;51.614;5.530;2023-02-12T17:11:37;37.25;;;20.40;;
59788;SDS011;47353;51.614;5.530;2023-02-12T17:14:02;35.53;;;21.35;;
59788;SDS011;47353;51.614;5.530;2023-02-12T17:16:28;35.25;;;20.42;;
59788;SDS011;47353;51.614;5.530;2023-02-12T17:18:53;35.63;;;20.80;;
59788;SDS011;47353;51.614;5.530;2023-02-12T17:21:34;37.97;;;20.80;;
59788;SDS011;47353;51.614;5.530;2023-02-12T17:24:04;38.33;;;20.75;;
59788;SDS011;47353;51.614;5.530;2023-02-12T17:26:43;36.80;;;21.40;;
59788;SDS011;47353;51.614;5.530;2023-02-12T17:29:09;38.63;;;20.52;;
59788;SDS011;47353;51.614;5.530;2023-02-12T17:31:34;35.83;;;20.95;;
59788;SDS011;47353;51.614;5.530;2023-02-12T17:34:01;36.80;;;20.70;;
59788;SDS011;47353;51.614;5.530;2023-02-12T17:36:27;36.40;;;21.05;;
59788;SDS011;47353;51.614;5.530;2023-02-12T17:38:53;37.75;;;21.35;;